Time;durP1;ratioP1;P1;durP2;ratioP2;P2;SDS_P1;SDS_P2;PMS_P1;PMS_P2;Temp;Humidity;BMP_temperature;BMP_pressure;BME280_temperature;BME280_humidity;BME280_pressure;Samples;Min_cycle;Max_cycle;Signal;HPM_P1;HPM_P2
2023/04/15 00:00:27;;;;;;;0.43;0.38;;;19.10;56.90;;;;;;5018861;28;20057;-63
2023/04/15 00:02:53;;;;;;;0.32;0.32;;;19.10;56.90;;;;;;5019216;28;20500;-63
2023/04/15 00:05:19;;;;;;;0.32;0.32;;;19.10;56.90;;;;;;5016082;28;20040;-64
2023/04/15 00:07:46;;;;;;;0.40;0.40;;;19.10;56.90;;;;;;5016054;28;20033;-64
2023/04/15 00:10:11;;;;;;;0.30;0.30;;;19.10;56.90;;;;;;5013662;28;20037;-64
2023/04/15 00:12:37;;;;;;;0.30;0.30;;;19.00;56.90;;;;;;5013563;28;20157;-64
2023/04/15 00:15:03;;;;;;;0.32;0.30;;;19.00;56.90;;;;;;5007355;28;20029;-64
2023/04/15 00:17:28;;;;;;;0.22;0.22;;;19.00;56.90;;;;;;5014079;28;20116;-63
2023/04/15 00:19:54;;;;;;;0.38;0.38;;;19.00;56.90;;;;;;5018143;28;20037;-63
2023/04/15 00:22:19;;;;;;;0.30;0.30;;;19.00;56.90;;;;;;5018343;28;20302;-63
2023/04/15 00:24:45;;;;;;;0.50;0.30;;;19.00;56.90;;;;;;5016954;28;20033;-63
2023/04/15 00:27:10;;;;;;;0.30;0.30;;;19.00;56.90;;;;;;5017035;28;20030;-64
2023/04/15 00:29:36;;;;;;;0.43;0.40;;;19.00;56.90;;;;;;5019274;28;20054;-64
2023/04/15 00:32:01;;;;;;;0.32;0.30;;;19.00;56.90;;;;;;5016670;28;20072;-64
2023/04/15 00:34:27;;;;;;;0.40;0.40;;;19.00;56.90;;;;;;5014502;28;20030;-63
2023/04/15 00:36:53;;;;;;;0.50;0.50;;;19.00;56.90;;;;;;5013565;28;20033;-63
2023/04/15 00:39:18;;;;;;;0.40;0.40;;;19.00;56.90;;;;;;5012834;28;20033;-63
2023/04/15 00:41:45;;;;;;;0.63;0.45;;;19.00;56.90;;;;;;5018577;28;20037;-64
2023/04/15 00:44:10;;;;;;;0.40;0.40;;;19.00;57.00;;;;;;5009977;28;20402;-64
2023/04/15 00:46:38;;;;;;;0.50;0.40;;;19.00;57.00;;;;;;5020267;28;20060;-64
2023/04/15 00:49:04;;;;;;;0.40;0.40;;;19.00;56.90;;;;;;5020989;28;20448;-63
2023/04/15 00:51:32;;;;;;;0.38;0.38;;;19.00;56.90;;;;;;5014491;28;20282;-63
2023/04/15 00:53:58;;;;;;;0.38;0.38;;;19.00;56.90;;;;;;5016135;28;20496;-63
2023/04/15 00:56:24;;;;;;;0.30;0.30;;;19.00;56.90;;;;;;5021978;28;20335;-63
2023/04/15 00:58:50;;;;;;;0.60;0.40;;;19.00;57.00;;;;;;5016456;28;20041;-63
2023/04/15 01:01:20;;;;;;;0.40;0.40;;;19.00;56.90;;;;;;5020482;28;20404;-64
2023/04/15 01:03:46;;;;;;;0.30;0.30;;;19.00;56.90;;;;;;5017723;28;20137;-62
2023/04/15 01:06:12;;;;;;;0.43;0.43;;;19.00;56.90;;;;;;5012652;28;20032;-63
2023/04/15 01:08:38;;;;;;;0.40;0.40;;;19.00;56.90;;;;;;5015333;28;20117;-64
2023/04/15 01:11:04;;;;;;;0.30;0.30;;;19.00;56.90;;;;;;5009230;28;20467;-63
2023/04/15 01:13:32;;;;;;;0.40;0.40;;;19.00;56.90;;;;;;5010639;28;20072;-63
2023/04/15 01:15:58;;;;;;;0.45;0.40;;;19.00;56.90;;;;;;5016162;28;20049;-63
2023/04/15 01:18:23;;;;;;;0.30;0.30;;;19.00;56.90;;;;;;5012256;28;20029;-64
2023/04/15 01:20:49;;;;;;;0.32;0.32;;;19.00;56.90;;;;;;5013115;28;20038;-64
2023/04/15 01:23:16;;;;;;;0.30;0.30;;;19.00;56.90;;;;;;5022583;28;20040;-63
2023/04/15 01:25:43;;;;;;;0.50;0.50;;;19.00;56.90;;;;;;5016917;28;20049;-64
2023/04/15 01:28:09;;;;;;;0.60;0.35;;;19.00;56.90;;;;;;5018118;28;20080;-64
2023/04/15 01:30:35;;;;;;;0.47;0.40;;;19.00;56.90;;;;;;5017522;28;20762;-63
2023/04/15 01:33:01;;;;;;;0.52;0.50;;;19.00;56.90;;;;;;5003249;28;20080;-64
2023/04/15 01:35:27;;;;;;;0.60;0.30;;;19.00;56.90;;;;;;5027857;28;20037;-63
2023/04/15 01:37:58;;;;;;;0.20;0.20;;;19.00;56.90;;;;;;5017860;28;20590;-63
2023/04/15 01:40:24;;;;;;;0.30;0.30;;;19.00;56.90;;;;;;5012738;28;20034;-64
2023/04/15 01:42:50;;;;;;;0.30;0.20;;;19.00;56.90;;;;;;5023933;28;20040;-64
2023/04/15 01:45:16;;;;;;;0.30;0.30;;;19.00;56.80;;;;;;5025095;28;20037;-64
2023/04/15 01:47:42;;;;;;;0.30;0.30;;;19.00;56.90;;;;;;5018836;28;20041;-63
2023/04/15 01:50:08;;;;;;;0.30;0.30;;;19.00;56.90;;;;;;5021055;28;20030;-64
2023/04/15 01:52:33;;;;;;;0.30;0.30;;;19.00;56.90;;;;;;5026401;28;20214;-64
2023/04/15 01:54:59;;;;;;;0.38;0.30;;;19.00;56.90;;;;;;5021574;28;20525;-63
2023/04/15 01:57:25;;;;;;;0.30;0.20;;;19.00;56.90;;;;;;5019745;28;20039;-64
2023/04/15 01:59:50;;;;;;;0.30;0.30;;;19.00;56.80;;;;;;5021666;28;20068;-64
2023/04/15 02:02:16;;;;;;;0.35;0.35;;;19.00;56.90;;;;;;5048755;28;20033;-64
2023/04/15 02:04:42;;;;;;;0.30;0.30;;;19.00;56.90;;;;;;5018554;28;20030;-63
2023/04/15 02:07:07;;;;;;;0.28;0.28;;;19.00;56.90;;;;;;5012525;28;20837;-64
2023/04/15 02:09:33;;;;;;;0.30;0.30;;;19.00;56.90;;;;;;5017621;28;20125;-64
2023/04/15 02:11:59;;;;;;;0.50;0.50;;;18.90;56.90;;;;;;5022714;28;20034;-63
2023/04/15 02:14:25;;;;;;;0.52;0.32;;;18.90;56.90;;;;;;5018885;28;20487;-64
2023/04/15 02:16:50;;;;;;;0.28;0.22;;;18.90;56.90;;;;;;5011623;28;20022;-64
2023/04/15 02:19:16;;;;;;;0.35;0.30;;;18.90;56.90;;;;;;5024811;28;20249;-64
2023/04/15 02:21:41;;;;;;;0.30;0.30;;;18.90;56.90;;;;;;5020616;28;20414;-64
2023/04/15 02:24:07;;;;;;;0.30;0.20;;;18.90;56.90;;;;;;5022990;28;20034;-63
2023/04/15 02:26:32;;;;;;;0.30;0.30;;;18.90;56.90;;;;;;5040268;28;20033;-64
2023/04/15 02:28:58;;;;;;;0.20;0.20;;;18.80;56.90;;;;;;5041846;28;20032;-63
2023/04/15 02:31:25;;;;;;;0.30;0.30;;;18.80;56.90;;;;;;5017023;28;20079;-64
2023/04/15 02:33:50;;;;;;;0.28;0.28;;;18.80;57.60;;;;;;5014945;28;20132;-63
2023/04/15 02:36:16;;;;;;;0.32;0.30;;;18.80;57.00;;;;;;5016342;28;20254;-64
2023/04/15 02:38:42;;;;;;;0.35;0.35;;;18.70;57.00;;;;;;5015804;28;20519;-64
2023/04/15 02:41:10;;;;;;;0.30;0.30;;;18.70;57.00;;;;;;5019049;28;20120;-63
2023/04/15 02:43:36;;;;;;;0.57;0.40;;;18.70;57.10;;;;;;5015412;28;20045;-64
2023/04/15 02:46:02;;;;;;;0.30;0.30;;;18.70;57.10;;;;;;5013134;28;20350;-63
2023/04/15 02:48:28;;;;;;;0.30;0.30;;;18.70;57.10;;;;;;5024508;28;20112;-64
2023/04/15 02:50:53;;;;;;;0.50;0.50;;;18.70;57.10;;;;;;5022245;28;20022;-63
2023/04/15 02:53:19;;;;;;;0.25;0.25;;;18.70;57.10;;;;;;5022873;28;20442;-63
2023/04/15 02:55:45;;;;;;;0.30;0.30;;;18.70;57.10;;;;;;5019433;28;20038;-63
2023/04/15 02:58:10;;;;;;;0.32;0.30;;;18.70;57.10;;;;;;5020612;28;20397;-64
2023/04/15 03:00:36;;;;;;;0.20;0.20;;;18.70;57.10;;;;;;5020630;28;20099;-64
2023/04/15 03:03:03;;;;;;;0.50;0.35;;;18.70;57.10;;;;;;5016925;28;20267;-63
2023/04/15 03:05:29;;;;;;;0.30;0.30;;;18.70;57.10;;;;;;5015499;28;20508;-63
2023/04/15 03:07:55;;;;;;;0.45;0.45;;;18.70;57.10;;;;;;5017964;28;20060;-65
2023/04/15 03:10:21;;;;;;;0.22;0.22;;;18.80;57.10;;;;;;5021477;28;20538;-65
2023/04/15 03:12:47;;;;;;;0.30;0.30;;;18.80;57.10;;;;;;5009897;28;20057;-64
2023/04/15 03:15:12;;;;;;;0.30;0.30;;;18.80;57.10;;;;;;5021069;28;20029;-64
2023/04/15 03:17:38;;;;;;;0.20;0.20;;;18.80;57.00;;;;;;5018272;28;20088;-64
2023/04/15 03:20:04;;;;;;;0.30;0.30;;;18.90;57.00;;;;;;5020937;28;20081;-64
2023/04/15 03:22:31;;;;;;;0.25;0.20;;;18.90;57.00;;;;;;5016798;28;20037;-64
2023/04/15 03:24:56;;;;;;;0.30;0.30;;;18.90;57.00;;;;;;5022466;28;20042;-63
2023/04/15 03:27:22;;;;;;;0.20;0.20;;;18.90;56.90;;;;;;5017425;28;20048;-64
2023/04/15 03:29:48;;;;;;;0.35;0.30;;;18.90;56.80;;;;;;5018181;28;20026;-64
2023/04/15 03:32:14;;;;;;;0.20;0.20;;;19.00;56.90;;;;;;5014828;28;20436;-64
2023/04/15 03:34:40;;;;;;;0.30;0.30;;;19.00;56.80;;;;;;5011026;28;20030;-64
2023/04/15 03:37:05;;;;;;;0.17;0.17;;;19.00;56.80;;;;;;5017446;28;20035;-64
2023/04/15 03:39:31;;;;;;;0.20;0.20;;;19.00;56.70;;;;;;5019254;28;20029;-64
2023/04/15 03:41:58;;;;;;;0.30;0.28;;;19.00;56.70;;;;;;5012369;28;20096;-64
2023/04/15 03:44:23;;;;;;;0.20;0.20;;;19.10;56.60;;;;;;5021603;28;20409;-64
2023/04/15 03:46:49;;;;;;;0.20;0.20;;;19.10;56.60;;;;;;5020618;28;20037;-63
2023/04/15 03:49:15;;;;;;;0.30;0.30;;;19.10;56.60;;;;;;5019078;28;20033;-63
2023/04/15 03:51:40;;;;;;;0.20;0.20;;;19.10;56.50;;;;;;5020831;28;20112;-63
2023/04/15 03:54:06;;;;;;;0.20;0.20;;;19.10;56.50;;;;;;5047919;28;20033;-64
2023/04/15 03:56:31;;;;;;;0.20;0.20;;;19.10;56.50;;;;;;5016399;28;20226;-64
2023/04/15 03:58:56;;;;;;;0.28;0.28;;;19.20;56.50;;;;;;5015787;28;20524;-63
2023/04/15 04:01:22;;;;;;;0.20;0.20;;;19.10;56.50;;;;;;5021137;28;20156;-64
2023/04/15 04:03:47;;;;;;;0.20;0.20;;;19.10;56.40;;;;;;5010188;28;20037;-64
2023/04/15 04:06:14;;;;;;;0.30;0.30;;;19.10;56.40;;;;;;5014372;28;20390;-64
2023/04/15 04:08:39;;;;;;;0.17;0.17;;;19.10;56.40;;;;;;5013949;28;20467;-64
2023/04/15 04:11:05;;;;;;;0.20;0.20;;;19.10;56.40;;;;;;5014645;28;20034;-63
2023/04/15 04:13:31;;;;;;;0.20;0.20;;;19.10;56.30;;;;;;5018416;28;20044;-64
2023/04/15 04:15:56;;;;;;;0.20;0.20;;;19.20;56.40;;;;;;5020260;28;20044;-64
2023/04/15 04:18:22;;;;;;;0.45;0.30;;;19.10;56.30;;;;;;5021927;28;20041;-63
2023/04/15 04:20:47;;;;;;;0.20;0.20;;;19.10;56.30;;;;;;5020289;28;20042;-64
2023/04/15 04:23:13;;;;;;;0.30;0.30;;;19.10;56.30;;;;;;5019834;28;20029;-64
2023/04/15 04:25:38;;;;;;;0.25;0.20;;;19.10;56.30;;;;;;5018863;28;20391;-64
2023/04/15 04:28:04;;;;;;;1.10;0.17;;;19.10;56.30;;;;;;5015210;28;20108;-64
2023/04/15 04:30:29;;;;;;;0.30;0.30;;;19.10;56.30;;;;;;5018591;28;20282;-64
2023/04/15 04:32:55;;;;;;;0.15;0.15;;;19.10;56.30;;;;;;5029528;23;20041;-53
2023/04/15 04:35:20;;;;;;;0.30;0.30;;;19.10;56.30;;;;;;5012759;28;20022;-53
2023/04/15 04:37:46;;;;;;;0.47;0.20;;;19.10;56.30;;;;;;5010654;28;20402;-53
2023/04/15 04:40:12;;;;;;;0.30;0.30;;;19.10;56.30;;;;;;5014220;28;20025;-54
2023/04/15 04:42:39;;;;;;;0.30;0.30;;;19.10;56.30;;;;;;5009559;28;20049;-55
2023/04/15 04:45:05;;;;;;;0.20;0.20;;;19.10;56.20;;;;;;5005490;28;20050;-51
2023/04/15 04:47:30;;;;;;;0.30;0.30;;;19.10;56.20;;;;;;5012023;28;20049;-51
2023/04/15 04:49:56;;;;;;;0.20;0.20;;;19.10;56.20;;;;;;5011993;28;20493;-54
2023/04/15 04:52:21;;;;;;;0.20;0.20;;;19.10;56.20;;;;;;5011793;28;20028;-51
2023/04/15 04:54:47;;;;;;;0.28;0.25;;;19.20;56.20;;;;;;5014398;28;20030;-51
2023/04/15 04:57:12;;;;;;;0.38;0.25;;;19.10;56.10;;;;;;5016275;28;20121;-53
2023/04/15 04:59:38;;;;;;;0.52;0.32;;;19.10;56.20;;;;;;5014309;28;20577;-51
2023/04/15 05:02:04;;;;;;;0.20;0.20;;;19.10;56.20;;;;;;5014839;28;20045;-51
2023/04/15 05:04:30;;;;;;;0.20;0.20;;;19.10;56.10;;;;;;5011172;28;20125;-55
2023/04/15 05:06:56;;;;;;;0.10;0.10;;;19.10;56.20;;;;;;5008633;28;20034;-54
2023/04/15 05:09:22;;;;;;;0.35;0.30;;;19.10;56.20;;;;;;5008175;28;20040;-54
2023/04/15 05:11:48;;;;;;;0.30;0.30;;;19.10;56.10;;;;;;5013431;28;20359;-52
2023/04/15 05:14:13;;;;;;;0.30;0.30;;;19.10;56.10;;;;;;5012819;28;20026;-53
2023/04/15 05:16:39;;;;;;;0.30;0.30;;;19.10;56.10;;;;;;5015108;28;20042;-53
2023/04/15 05:19:04;;;;;;;0.38;0.38;;;19.10;56.10;;;;;;5017844;28;20029;-52
2023/04/15 05:21:30;;;;;;;0.40;0.40;;;19.10;56.10;;;;;;5013113;28;20057;-53
2023/04/15 05:23:56;;;;;;;0.30;0.30;;;19.10;56.10;;;;;;5018250;28;20039;-53
2023/04/15 05:26:21;;;;;;;0.20;0.20;;;19.10;56.20;;;;;;5017560;28;20029;-50
2023/04/15 05:28:47;;;;;;;0.20;0.20;;;19.10;56.10;;;;;;5017580;28;20033;-50
2023/04/15 05:31:13;;;;;;;0.32;0.32;;;19.10;56.10;;;;;;5017557;28;20021;-51
2023/04/15 05:33:39;;;;;;;0.30;0.30;;;19.10;56.10;;;;;;5016478;28;20037;-54
2023/04/15 05:36:05;;;;;;;0.30;0.20;;;19.10;56.10;;;;;;5015158;28;20025;-55
2023/04/15 05:38:30;;;;;;;0.20;0.20;;;19.10;56.10;;;;;;5014674;28;20282;-52
2023/04/15 05:40:56;;;;;;;0.20;0.20;;;19.10;56.10;;;;;;5011957;28;20057;-53
2023/04/15 05:43:21;;;;;;;0.20;0.20;;;19.10;56.10;;;;;;5013855;28;20402;-50
2023/04/15 05:45:47;;;;;;;0.20;0.20;;;19.10;56.10;;;;;;5014888;28;20332;-54
2023/04/15 05:48:12;;;;;;;0.30;0.30;;;19.10;56.00;;;;;;5019058;28;20029;-53
2023/04/15 05:50:40;;;;;;;0.40;0.40;;;19.10;56.10;;;;;;5016772;28;20515;-55
2023/04/15 05:53:07;;;;;;;0.20;0.20;;;19.10;56.10;;;;;;5014654;28;20034;-53
2023/04/15 05:55:32;;;;;;;0.50;0.50;;;19.00;56.00;;;;;;5016602;28;20509;-53
2023/04/15 05:57:58;;;;;;;0.20;0.20;;;19.10;56.00;;;;;;5018770;28;20038;-52
2023/04/15 06:00:23;;;;;;;0.30;0.30;;;19.10;56.10;;;;;;5019318;28;20084;-52
2023/04/15 06:02:49;;;;;;;0.20;0.20;;;19.10;56.10;;;;;;5016858;28;20061;-54
2023/04/15 06:05:14;;;;;;;0.20;0.20;;;19.10;56.10;;;;;;5013272;28;20038;-50
2023/04/15 06:07:42;;;;;;;0.22;0.22;;;19.10;56.10;;;;;;5010136;28;20588;-55
2023/04/15 06:10:08;;;;;;;0.30;0.30;;;19.10;56.10;;;;;;5010120;28;20030;-53
2023/04/15 06:12:34;;;;;;;0.20;0.20;;;19.10;56.00;;;;;;5010994;28;20040;-52
2023/04/15 06:14:59;;;;;;;0.30;0.28;;;19.10;56.00;;;;;;5011529;28;20041;-51
2023/04/15 06:17:25;;;;;;;0.28;0.22;;;19.10;56.10;;;;;;5012299;28;20033;-50
2023/04/15 06:19:54;;;;;;;0.30;0.30;;;19.10;56.10;;;;;;5012397;28;20022;-52
2023/04/15 06:22:21;;;;;;;0.20;0.20;;;19.10;56.10;;;;;;5013740;28;20029;-51
2023/04/15 06:24:47;;;;;;;0.30;0.30;;;19.10;56.10;;;;;;5015964;28;20450;-50
2023/04/15 06:27:12;;;;;;;0.50;0.30;;;19.10;56.10;;;;;;5014594;28;20045;-53
2023/04/15 06:29:38;;;;;;;0.22;0.22;;;19.10;56.00;;;;;;5017706;28;20038;-51
2023/04/15 06:32:03;;;;;;;0.25;0.25;;;19.10;56.10;;;;;;5009937;28;20043;-51
2023/04/15 06:34:29;;;;;;;0.30;0.20;;;19.10;56.10;;;;;;5011446;28;20128;-52
2023/04/15 06:36:55;;;;;;;0.30;0.20;;;19.10;56.10;;;;;;5012720;28;20413;-53
2023/04/15 06:39:21;;;;;;;0.28;0.28;;;19.10;56.10;;;;;;5014985;28;20033;-54
2023/04/15 06:41:46;;;;;;;0.20;0.20;;;19.10;56.10;;;;;;5007858;28;20564;-54
2023/04/15 06:44:12;;;;;;;0.63;0.20;;;19.10;56.10;;;;;;5013718;28;20029;-54
2023/04/15 06:46:37;;;;;;;0.30;0.30;;;19.10;56.10;;;;;;5011812;28;20112;-51
2023/04/15 06:49:04;;;;;;;0.30;0.30;;;19.10;56.10;;;;;;5011884;28;20064;-52
2023/04/15 06:51:30;;;;;;;0.40;0.30;;;19.10;56.10;;;;;;5016352;28;20389;-50
2023/04/15 06:53:56;;;;;;;0.40;0.40;;;19.10;56.10;;;;;;5015974;28;20048;-53
2023/04/15 06:56:22;;;;;;;0.30;0.30;;;19.10;56.10;;;;;;5013255;28;20029;-54
2023/04/15 06:58:47;;;;;;;0.30;0.30;;;19.10;56.10;;;;;;5018894;28;20341;-53
2023/04/15 07:01:13;;;;;;;0.30;0.30;;;19.10;56.00;;;;;;5013533;28;20409;-56
2023/04/15 07:03:38;;;;;;;1.00;0.57;;;19.10;56.10;;;;;;5013563;28;20582;-51
2023/04/15 07:06:05;;;;;;;0.10;0.10;;;19.10;56.10;;;;;;5012007;28;20042;-51
2023/04/15 07:08:32;;;;;;;0.30;0.30;;;19.00;56.00;;;;;;5014583;28;20091;-54
2023/04/15 07:10:58;;;;;;;0.40;0.20;;;19.00;56.10;;;;;;5014078;28;20083;-53
2023/04/15 07:13:24;;;;;;;0.30;0.30;;;19.10;56.10;;;;;;5010980;28;20021;-55
2023/04/15 07:15:49;;;;;;;0.20;0.20;;;19.10;56.10;;;;;;5013659;28;21465;-56
2023/04/15 07:18:15;;;;;;;0.20;0.20;;;19.10;56.10;;;;;;5009039;28;20029;-55
2023/04/15 07:20:40;;;;;;;0.28;0.20;;;19.10;56.10;;;;;;5016132;28;20047;-52
2023/04/15 07:23:06;;;;;;;0.68;0.35;;;19.10;56.10;;;;;;5016638;28;20120;-55
2023/04/15 07:25:32;;;;;;;0.32;0.30;;;19.10;56.10;;;;;;5016179;28;20462;-52
2023/04/15 07:27:57;;;;;;;0.30;0.20;;;19.10;56.10;;;;;;5015664;28;20136;-55
2023/04/15 07:30:23;;;;;;;0.30;0.30;;;19.10;56.10;;;;;;5011740;28;20037;-55
2023/04/15 07:32:48;;;;;;;0.38;0.30;;;19.10;56.10;;;;;;5014366;28;20036;-53
2023/04/15 07:35:14;;;;;;;0.80;0.30;;;19.10;56.00;;;;;;5015046;28;20034;-55
2023/04/15 07:37:40;;;;;;;0.30;0.20;;;19.10;56.00;;;;;;5010610;28;20149;-52
2023/04/15 07:40:07;;;;;;;0.30;0.20;;;19.10;56.00;;;;;;5011308;28;20026;-54
2023/04/15 07:42:34;;;;;;;0.38;0.32;;;19.10;56.00;;;;;;5010445;28;20068;-54
2023/04/15 07:44:59;;;;;;;0.10;0.10;;;19.10;56.00;;;;;;5012781;28;20026;-54
2023/04/15 07:47:25;;;;;;;0.40;0.40;;;19.10;55.90;;;;;;5012279;28;20071;-53
2023/04/15 07:49:51;;;;;;;0.30;0.30;;;19.10;56.10;;;;;;5012944;28;20063;-53
2023/04/15 07:52:17;;;;;;;0.20;0.20;;;19.10;56.00;;;;;;5014817;28;20637;-57
2023/04/15 07:54:43;;;;;;;0.38;0.20;;;19.10;56.10;;;;;;5014854;28;20403;-54
2023/04/15 07:57:09;;;;;;;0.20;0.20;;;19.10;56.00;;;;;;5013911;28;20519;-55
2023/04/15 07:59:35;;;;;;;0.30;0.20;;;19.10;56.00;;;;;;5013632;28;20044;-53
2023/04/15 08:02:01;;;;;;;0.43;0.40;;;19.10;56.00;;;;;;5009692;28;20037;-51
2023/04/15 08:04:27;;;;;;;0.28;0.28;;;19.10;56.00;;;;;;5014346;28;20073;-53
2023/04/15 08:06:53;;;;;;;0.57;0.20;;;19.10;56.00;;;;;;5014255;28;20083;-56
2023/04/15 08:09:19;;;;;;;0.20;0.20;;;19.10;56.00;;;;;;5011449;28;20030;-52
2023/04/15 08:11:47;;;;;;;0.30;0.20;;;19.10;56.00;;;;;;5011628;28;20034;-58
2023/04/15 08:14:13;;;;;;;0.20;0.20;;;19.10;56.00;;;;;;5013468;28;20033;-57
2023/04/15 08:16:38;;;;;;;0.40;0.30;;;19.10;56.00;;;;;;5010950;28;20021;-58
2023/04/15 08:19:04;;;;;;;0.20;0.20;;;19.10;56.00;;;;;;5015367;28;20218;-57
2023/04/15 08:21:30;;;;;;;0.32;0.32;;;19.10;55.90;;;;;;5015194;28;20122;-55
2023/04/15 08:23:55;;;;;;;0.20;0.20;;;19.10;55.90;;;;;;5012952;28;20065;-54
2023/04/15 08:26:21;;;;;;;0.77;0.35;;;19.10;55.90;;;;;;5016767;28;20384;-55
2023/04/15 08:28:48;;;;;;;0.20;0.20;;;19.10;55.90;;;;;;5014822;28;20040;-56
2023/04/15 08:31:15;;;;;;;0.22;0.22;;;19.10;55.90;;;;;;5010644;28;20521;-55
2023/04/15 08:33:40;;;;;;;0.30;0.30;;;19.10;55.90;;;;;;5012197;28;20068;-57
2023/04/15 08:36:06;;;;;;;0.25;0.20;;;19.10;56.00;;;;;;5011919;28;20057;-55
2023/04/15 08:38:32;;;;;;;0.40;0.30;;;19.10;55.90;;;;;;5007551;28;20029;-53
2023/04/15 08:41:01;;;;;;;0.38;0.30;;;19.10;56.00;;;;;;5006396;28;20484;-55
2023/04/15 08:43:29;;;;;;;0.40;0.40;;;19.10;56.00;;;;;;5010160;28;20045;-56
2023/04/15 08:45:55;;;;;;;0.45;0.30;;;19.10;56.00;;;;;;5013452;28;20059;-52
2023/04/15 08:48:23;;;;;;;0.30;0.30;;;19.10;56.00;;;;;;5018557;28;20025;-55
2023/04/15 08:50:49;;;;;;;0.30;0.30;;;19.10;55.90;;;;;;5020514;28;20040;-51
2023/04/15 08:53:15;;;;;;;0.20;0.20;;;19.10;56.00;;;;;;5019471;28;20033;-55
2023/04/15 08:55:45;;;;;;;0.20;0.20;;;19.10;56.00;;;;;;5018927;28;20411;-57
2023/04/15 08:58:12;;;;;;;0.20;0.20;;;19.10;56.00;;;;;;5015818;28;20029;-53
2023/04/15 09:00:38;;;;;;;0.40;0.20;;;19.10;55.90;;;;;;5017030;28;20041;-56
2023/04/15 09:03:05;;;;;;;0.50;0.20;;;19.10;55.90;;;;;;5013306;28;20045;-52
2023/04/15 09:05:37;;;;;;;0.20;0.20;;;19.10;55.90;;;;;;5014100;28;20068;-54
2023/04/15 09:08:04;;;;;;;0.25;0.20;;;19.10;55.90;;;;;;5013464;28;20076;-57
2023/04/15 09:10:31;;;;;;;0.30;0.30;;;19.20;56.10;;;;;;5013826;28;20026;-56
2023/04/15 09:12:57;;;;;;;0.22;0.22;;;19.10;56.00;;;;;;5013868;28;20554;-58
2023/04/15 09:15:26;;;;;;;0.22;0.22;;;19.20;56.00;;;;;;5013666;28;20121;-58
2023/04/15 09:17:52;;;;;;;0.20;0.20;;;19.20;56.00;;;;;;5014889;28;20030;-57
2023/04/15 09:20:17;;;;;;;0.30;0.20;;;19.20;56.10;;;;;;5019187;28;20030;-55
2023/04/15 09:22:46;;;;;;;0.20;0.20;;;19.20;56.00;;;;;;5018667;28;20033;-56
2023/04/15 09:25:21;;;;;;;0.50;0.20;;;19.20;56.10;;;;;;5019639;28;20315;-56
2023/04/15 09:27:55;;;;;;;0.35;0.30;;;19.10;55.90;;;;;;5014451;28;20480;-56
2023/04/15 09:30:21;;;;;;;0.30;0.30;;;19.20;56.60;;;;;;5016660;28;20116;-57
2023/04/15 09:33:07;;;;;;;0.30;0.30;;;19.20;56.00;;;;;;5016734;28;20120;-56
2023/04/15 09:35:34;;;;;;;0.30;0.20;;;19.20;56.00;;;;;;5018987;28;20199;-55
2023/04/15 09:38:06;;;;;;;0.40;0.30;;;19.20;56.00;;;;;;5008149;28;20041;-57
2023/04/15 09:40:32;;;;;;;0.30;0.20;;;19.20;56.10;;;;;;5011911;28;20086;-53
2023/04/15 09:42:58;;;;;;;0.30;0.22;;;19.20;56.10;;;;;;5015092;28;20495;-57
2023/04/15 09:45:24;;;;;;;0.30;0.20;;;19.20;56.10;;;;;;5015614;28;20284;-54
2023/04/15 09:47:52;;;;;;;0.40;0.40;;;19.20;56.20;;;;;;5016703;28;20045;-52
2023/04/15 09:50:19;;;;;;;0.40;0.20;;;19.20;56.10;;;;;;5018181;28;20109;-56
2023/04/15 09:52:45;;;;;;;0.20;0.20;;;19.20;56.00;;;;;;5017181;28;20029;-54
2023/04/15 09:55:12;;;;;;;0.52;0.30;;;19.20;56.10;;;;;;5015019;28;20489;-51
2023/04/15 09:57:40;;;;;;;0.45;0.40;;;19.10;56.00;;;;;;5013768;28;20044;-56
2023/04/15 10:00:07;;;;;;;0.40;0.40;;;19.20;56.10;;;;;;5012361;28;20119;-51
2023/04/15 10:02:33;;;;;;;0.30;0.30;;;19.20;56.10;;;;;;5013994;28;20030;-57
2023/04/15 10:05:00;;;;;;;1.48;0.20;;;19.20;56.10;;;;;;5009052;28;20030;-51
2023/04/15 10:07:26;;;;;;;0.30;0.30;;;19.20;56.10;;;;;;5011677;28;20023;-51
2023/04/15 10:09:52;;;;;;;0.30;0.30;;;19.20;56.10;;;;;;5014439;28;20029;-52
2023/04/15 10:12:19;;;;;;;0.22;0.22;;;19.20;56.10;;;;;;5012008;28;20034;-49
2023/04/15 10:14:51;;;;;;;0.30;0.30;;;19.20;56.10;;;;;;5014391;28;20157;-51
2023/04/15 10:17:17;;;;;;;0.35;0.35;;;19.20;56.10;;;;;;5016008;28;20394;-58
2023/04/15 10:19:43;;;;;;;0.30;0.30;;;19.20;56.10;;;;;;5017826;28;20463;-54
2023/04/15 10:22:09;;;;;;;0.30;0.30;;;19.20;56.10;;;;;;5018266;28;20033;-51
2023/04/15 10:24:36;;;;;;;0.30;0.30;;;19.10;56.10;;;;;;5012828;28;20053;-54
2023/04/15 10:27:04;;;;;;;0.30;0.30;;;19.20;56.10;;;;;;5012810;28;20029;-51
2023/04/15 10:29:30;;;;;;;0.30;0.22;;;19.10;56.10;;;;;;5011209;28;20037;-57
2023/04/15 10:31:55;;;;;;;0.47;0.40;;;19.10;56.10;;;;;;5014828;28;20034;-54
2023/04/15 10:34:23;;;;;;;0.30;0.30;;;19.10;56.20;;;;;;5043917;22;20041;-52
2023/04/15 10:36:48;;;;;;;0.43;0.30;;;19.10;56.20;;;;;;5017939;28;20441;-50
2023/04/15 10:39:32;;;;;;;0.40;0.30;;;19.10;56.20;;;;;;5023009;28;20074;-49
2023/04/15 10:42:10;;;;;;;0.82;0.30;;;19.10;56.20;;;;;;5036811;28;20041;-49
2023/04/15 10:44:38;;;;;;;0.50;0.40;;;19.10;56.20;;;;;;5021245;28;20056;-47
2023/04/15 10:47:12;;;;;;;0.50;0.40;;;19.10;56.20;;;;;;5022012;28;20029;-49
2023/04/15 10:49:44;;;;;;;0.50;0.40;;;19.20;56.30;;;;;;5019294;28;20041;-47
2023/04/15 10:52:10;;;;;;;0.40;0.40;;;19.20;56.20;;;;;;5015803;28;20052;-50
2023/04/15 10:54:38;;;;;;;0.35;0.30;;;19.20;56.80;;;;;;5017401;28;20040;-47
2023/04/15 10:57:03;;;;;;;0.45;0.40;;;19.30;56.10;;;;;;5015628;28;20088;-48
2023/04/15 10:59:29;;;;;;;0.30;0.30;;;19.30;56.10;;;;;;5019243;28;20412;-49
2023/04/15 11:02:00;;;;;;;0.50;0.40;;;19.40;56.10;;;;;;5015525;28;20029;-47
2023/04/15 11:04:51;;;;;;;0.45;0.45;;;19.40;56.10;;;;;;5023752;28;20116;-50
2023/04/15 11:07:45;;;;;;;0.40;0.40;;;19.40;56.10;;;;;;5015627;28;20069;-52
2023/04/15 11:10:17;;;;;;;0.50;0.50;;;19.40;56.10;;;;;;5021591;28;20075;-47
2023/04/15 11:12:44;;;;;;;0.40;0.40;;;19.30;56.10;;;;;;5021481;28;20040;-48
2023/04/15 11:15:27;;;;;;;0.38;0.38;;;19.40;56.20;;;;;;5023331;28;20410;-48
2023/04/15 11:17:54;;;;;;;0.35;0.30;;;19.40;56.20;;;;;;5015963;28;20447;-49
2023/04/15 11:20:20;;;;;;;0.45;0.40;;;19.40;56.30;;;;;;5018199;28;20033;-50
2023/04/15 11:22:53;;;;;;;0.30;0.30;;;19.30;56.20;;;;;;5021397;28;20621;-54
2023/04/15 11:25:30;;;;;;;0.40;0.40;;;19.30;56.30;;;;;;5019375;28;20395;-47
2023/04/15 11:27:57;;;;;;;0.70;0.50;;;19.30;56.30;;;;;;5016863;28;20552;-49
2023/04/15 11:30:24;;;;;;;0.50;0.50;;;19.30;56.40;;;;;;5017885;28;20064;-47
2023/04/15 11:32:51;;;;;;;0.38;0.30;;;19.20;56.30;;;;;;5019456;28;20072;-47
2023/04/15 11:35:18;;;;;;;0.50;0.50;;;19.20;56.50;;;;;;5021618;28;20026;-56
2023/04/15 11:37:44;;;;;;;0.40;0.40;;;19.20;56.50;;;;;;5026934;28;20060;-50
2023/04/15 11:40:11;;;;;;;0.45;0.40;;;19.10;56.50;;;;;;5024042;28;20079;-48
2023/04/15 11:42:36;;;;;;;0.47;0.45;;;19.10;56.50;;;;;;5020329;28;20056;-48
2023/04/15 11:45:13;;;;;;;0.57;0.40;;;19.20;56.60;;;;;;5019265;28;20121;-49
2023/04/15 11:47:40;;;;;;;0.50;0.40;;;19.20;56.50;;;;;;5018983;28;20042;-47
2023/04/15 11:50:22;;;;;;;0.20;0.20;;;19.20;56.50;;;;;;5021517;28;20026;-48
2023/04/15 11:52:57;;;;;;;0.60;0.40;;;19.30;56.50;;;;;;5006202;28;20047;-55
2023/04/15 11:55:23;;;;;;;0.35;0.30;;;19.30;56.50;;;;;;5022950;28;20030;-49
2023/04/15 11:58:09;;;;;;;0.47;0.40;;;19.40;56.50;;;;;;5016507;28;20045;-47
2023/04/15 12:00:35;;;;;;;0.40;0.40;;;19.40;56.50;;;;;;5014554;28;20053;-49
2023/04/15 12:03:34;;;;;;;0.50;0.40;;;19.40;56.40;;;;;;5023987;28;20511;-50
2023/04/15 12:06:23;;;;;;;0.43;0.40;;;19.40;56.40;;;;;;5018715;28;20099;-46
2023/04/15 12:08:59;;;;;;;0.50;0.30;;;19.40;56.30;;;;;;5010179;28;20033;-49
2023/04/15 12:11:33;;;;;;;0.50;0.50;;;19.40;56.30;;;;;;5020799;28;20036;-47
2023/04/15 12:14:15;;;;;;;0.40;0.40;;;19.40;56.30;;;;;;5019170;28;20510;-49
2023/04/15 12:16:45;;;;;;;0.47;0.40;;;19.50;56.30;;;;;;5017297;28;20030;-50
2023/04/15 12:19:13;;;;;;;0.30;0.30;;;19.50;56.30;;;;;;5020390;28;20022;-48
2023/04/15 12:21:42;;;;;;;0.35;0.32;;;19.50;56.30;;;;;;5029561;28;20037;-48
2023/04/15 12:24:10;;;;;;;0.40;0.40;;;19.50;56.30;;;;;;5013622;28;20411;-49
2023/04/15 12:26:52;;;;;;;0.38;0.30;;;19.50;56.20;;;;;;5019723;28;20039;-47
2023/04/15 12:29:18;;;;;;;0.43;0.40;;;19.60;56.30;;;;;;5005759;28;20346;-50
2023/04/15 12:31:55;;;;;;;0.30;0.30;;;19.60;56.80;;;;;;5025312;28;20153;-51
2023/04/15 12:34:32;;;;;;;0.52;0.40;;;19.60;56.20;;;;;;5023338;28;20052;-47
2023/04/15 12:36:59;;;;;;;0.50;0.40;;;19.60;56.20;;;;;;5017290;28;20485;-50
2023/04/15 12:39:27;;;;;;;0.65;0.45;;;19.60;56.20;;;;;;5018843;28;20112;-48
2023/04/15 12:41:53;;;;;;;0.50;0.50;;;19.60;56.20;;;;;;5018320;28;20387;-47
2023/04/15 12:44:21;;;;;;;0.60;0.30;;;19.70;56.20;;;;;;5023359;28;20371;-48
2023/04/15 12:46:47;;;;;;;0.35;0.35;;;19.70;56.20;;;;;;5023381;28;20033;-47